sensor_id;sensor_type;location;lat;lon;timestamp;temperature;humidity
14924;DHT22;7554;43.600;1.480;2024-02-15T00:02:10;12.10;1.00
14924;DHT22;7554;43.600;1.480;2024-02-15T00:04:37;12.10;1.00
14924;DHT22;7554;43.600;1.480;2024-02-15T00:07:05;12.10;1.00
14924;DHT22;7554;43.600;1.480;2024-02-15T00:09:32;12.00;1.00
14924;DHT22;7554;43.600;1.480;2024-02-15T00:11:59;12.10;1.00
14924;DHT22;7554;43.600;1.480;2024-02-15T00:14:28;12.10;1.00
14924;DHT22;7554;43.600;1.480;2024-02-15T00:16:57;12.10;1.00
14924;DHT22;7554;43.600;1.480;2024-02-15T00:19:25;12.10;1.00
14924;DHT22;7554;43.600;1.480;2024-02-15T00:21:55;12.00;1.00
14924;DHT22;7554;43.600;1.480;2024-02-15T00:24:23;12.00;1.00
14924;DHT22;7554;43.600;1.480;2024-02-15T00:26:51;12.00;1.00
14924;DHT22;7554;43.600;1.480;2024-02-15T00:29:19;12.00;1.00
14924;DHT22;7554;43.600;1.480;2024-02-15T00:31:48;12.00;1.00
14924;DHT22;7554;43.600;1.480;2024-02-15T00:34:16;12.00;1.00
14924;DHT22;7554;43.600;1.480;2024-02-15T00:36:43;11.90;1.00
14924;DHT22;7554;43.600;1.480;2024-02-15T00:39:11;11.90;1.00
14924;DHT22;7554;43.600;1.480;2024-02-15T00:41:40;11.90;1.00
14924;DHT22;7554;43.600;1.480;2024-02-15T00:44:08;11.90;1.00
14924;DHT22;7554;43.600;1.480;2024-02-15T00:46:36;11.90;1.00
14924;DHT22;7554;43.600;1.480;2024-02-15T00:49:05;11.90;1.00
14924;DHT22;7554;43.600;1.480;2024-02-15T00:51:32;11.90;1.00
14924;DHT22;7554;43.600;1.480;2024-02-15T00:54:00;11.90;1.00
14924;DHT22;7554;43.600;1.480;2024-02-15T00:56:27;11.90;1.00
14924;DHT22;7554;43.600;1.480;2024-02-15T00:58:55;11.90;1.00
14924;DHT22;7554;43.600;1.480;2024-02-15T01:01:23;11.90;1.00
14924;DHT22;7554;43.600;1.480;2024-02-15T01:03:50;11.80;1.00
14924;DHT22;7554;43.600;1.480;2024-02-15T01:06:19;11.70;1.00
14924;DHT22;7554;43.600;1.480;2024-02-15T01:08:47;11.70;1.00
14924;DHT22;7554;43.600;1.480;2024-02-15T01:11:14;11.60;1.00
14924;DHT22;7554;43.600;1.480;2024-02-15T01:13:42;11.60;1.00
14924;DHT22;7554;43.600;1.480;2024-02-15T01:16:10;11.60;1.00
14924;DHT22;7554;43.600;1.480;2024-02-15T01:18:37;11.60;1.00
14924;DHT22;7554;43.600;1.480;2024-02-15T01:21:04;11.60;1.00
14924;DHT22;7554;43.600;1.480;2024-02-15T01:23:33;11.60;1.00
14924;DHT22;7554;43.600;1.480;2024-02-15T01:26:02;11.50;1.00
14924;DHT22;7554;43.600;1.480;2024-02-15T01:28:31;11.60;1.00
14924;DHT22;7554;43.600;1.480;2024-02-15T01:30:58;11.50;1.00
14924;DHT22;7554;43.600;1.480;2024-02-15T01:33:25;11.60;1.00
14924;DHT22;7554;43.600;1.480;2024-02-15T01:35:53;11.50;1.00
14924;DHT22;7554;43.600;1.480;2024-02-15T01:38:20;11.50;1.00
14924;DHT22;7554;43.600;1.480;2024-02-15T01:40:49;11.60;1.00
14924;DHT22;7554;43.600;1.480;2024-02-15T01:43:16;11.60;1.00
14924;DHT22;7554;43.600;1.480;2024-02-15T01:45:43;11.50;3.80
14924;DHT22;7554;43.600;1.480;2024-02-15T01:48:13;11.50;9.80
14924;DHT22;7554;43.600;1.480;2024-02-15T01:50:41;11.50;27.10
14924;DHT22;7554;43.600;1.480;2024-02-15T01:53:09;11.40;61.40
14924;DHT22;7554;43.600;1.480;2024-02-15T01:55:38;11.40;67.60
14924;DHT22;7554;43.600;1.480;2024-02-15T01:58:07;11.40;74.00
14924;DHT22;7554;43.600;1.480;2024-02-15T02:00:35;11.50;92.70
14924;DHT22;7554;43.600;1.480;2024-02-15T02:03:05;11.40;99.90
14924;DHT22;7554;43.600;1.480;2024-02-15T02:05:33;11.40;99.90
14924;DHT22;7554;43.600;1.480;2024-02-15T02:08:00;11.40;99.90
14924;DHT22;7554;43.600;1.480;2024-02-15T02:10:30;11.50;99.90
14924;DHT22;7554;43.600;1.480;2024-02-15T02:12:59;11.50;99.90
14924;DHT22;7554;43.600;1.480;2024-02-15T02:15:30;11.50;99.90
14924;DHT22;7554;43.600;1.480;2024-02-15T02:17:58;11.40;99.90
14924;DHT22;7554;43.600;1.480;2024-02-15T02:20:25;11.50;99.90
14924;DHT22;7554;43.600;1.480;2024-02-15T02:22:54;11.50;97.70
14924;DHT22;7554;43.600;1.480;2024-02-15T02:25:28;11.40;99.90
14924;DHT22;7554;43.600;1.480;2024-02-15T02:27:56;11.40;86.50
14924;DHT22;7554;43.600;1.480;2024-02-15T02:30:23;11.40;69.80
14924;DHT22;7554;43.600;1.480;2024-02-15T02:32:55;11.40;34.90
14924;DHT22;7554;43.600;1.480;2024-02-15T02:35:23;11.50;11.30
14924;DHT22;7554;43.600;1.480;2024-02-15T02:37:51;11.50;1.00
14924;DHT22;7554;43.600;1.480;2024-02-15T02:40:19;11.50;1.00
14924;DHT22;7554;43.600;1.480;2024-02-15T02:42:52;11.50;1.00
14924;DHT22;7554;43.600;1.480;2024-02-15T02:45:22;11.50;1.00
14924;DHT22;7554;43.600;1.480;2024-02-15T02:47:49;11.50;1.00
14924;DHT22;7554;43.600;1.480;2024-02-15T02:50:17;11.50;1.00
14924;DHT22;7554;43.600;1.480;2024-02-15T02:52:44;11.40;1.00
14924;DHT22;7554;43.600;1.480;2024-02-15T02:55:14;11.50;1.00
14924;DHT22;7554;43.600;1.480;2024-02-15T02:57:42;11.40;1.00
14924;DHT22;7554;43.600;1.480;2024-02-15T03:00:13;11.50;1.00
14924;DHT22;7554;43.600;1.480;2024-02-15T03:02:42;11.40;1.00
14924;DHT22;7554;43.600;1.480;2024-02-15T03:05:10;11.40;1.00
14924;DHT22;7554;43.600;1.480;2024-02-15T03:07:38;11.40;14.90
14924;DHT22;7554;43.600;1.480;2024-02-15T03:10:07;11.40;31.50
14924;DHT22;7554;43.600;1.480;2024-02-15T03:12:35;11.40;54.90
14924;DHT22;7554;43.600;1.480;2024-02-15T03:15:03;11.30;81.90
14924;DHT22;7554;43.600;1.480;2024-02-15T03:17:35;11.30;99.90
14924;DHT22;7554;43.600;1.480;2024-02-15T03:20:05;11.30;99.90
14924;DHT22;7554;43.600;1.480;2024-02-15T03:22:50;11.20;99.90
14924;DHT22;7554;43.600;1.480;2024-02-15T03:25:17;11.20;99.90
14924;DHT22;7554;43.600;1.480;2024-02-15T03:27:44;11.20;99.90
14924;DHT22;7554;43.600;1.480;2024-02-15T03:30:12;11.20;99.90
14924;DHT22;7554;43.600;1.480;2024-02-15T03:32:41;11.20;99.90
14924;DHT22;7554;43.600;1.480;2024-02-15T03:35:09;11.20;99.90
14924;DHT22;7554;43.600;1.480;2024-02-15T03:37:39;11.30;99.90
14924;DHT22;7554;43.600;1.480;2024-02-15T03:40:08;11.30;99.90
14924;DHT22;7554;43.600;1.480;2024-02-15T03:42:35;11.20;99.90
14924;DHT22;7554;43.600;1.480;2024-02-15T03:45:04;11.30;99.90
14924;DHT22;7554;43.600;1.480;2024-02-15T03:47:32;11.30;99.90
14924;DHT22;7554;43.600;1.480;2024-02-15T03:50:03;11.30;99.90
14924;DHT22;7554;43.600;1.480;2024-02-15T03:52:30;11.30;99.90
14924;DHT22;7554;43.600;1.480;2024-02-15T03:54:58;11.30;99.90
14924;DHT22;7554;43.600;1.480;2024-02-15T03:57:25;11.30;99.90
14924;DHT22;7554;43.600;1.480;2024-02-15T03:59:54;11.30;99.90
14924;DHT22;7554;43.600;1.480;2024-02-15T04:02:23;11.40;99.90
14924;DHT22;7554;43.600;1.480;2024-02-15T04:04:52;11.30;99.90
14924;DHT22;7554;43.600;1.480;2024-02-15T04:07:22;11.30;99.90
14924;DHT22;7554;43.600;1.480;2024-02-15T04:09:51;11.30;99.90
14924;DHT22;7554;43.600;1.480;2024-02-15T04:12:18;11.30;99.90
14924;DHT22;7554;43.600;1.480;2024-02-15T04:14:46;11.30;99.90
14924;DHT22;7554;43.600;1.480;2024-02-15T04:17:14;11.30;99.90
14924;DHT22;7554;43.600;1.480;2024-02-15T04:19:44;11.30;99.90
14924;DHT22;7554;43.600;1.480;2024-02-15T04:22:12;11.30;99.90
14924;DHT22;7554;43.600;1.480;2024-02-15T04:24:43;11.30;99.90
14924;DHT22;7554;43.600;1.480;2024-02-15T04:27:11;11.30;1.00
14924;DHT22;7554;43.600;1.480;2024-02-15T04:29:39;11.40;1.00
14924;DHT22;7554;43.600;1.480;2024-02-15T04:32:07;11.30;1.00
14924;DHT22;7554;43.600;1.480;2024-02-15T04:34:36;11.30;1.00
14924;DHT22;7554;43.600;1.480;2024-02-15T04:37:03;11.40;1.00
14924;DHT22;7554;43.600;1.480;2024-02-15T04:39:33;11.40;1.00
14924;DHT22;7554;43.600;1.480;2024-02-15T04:42:03;11.40;1.00
14924;DHT22;7554;43.600;1.480;2024-02-15T04:44:32;11.40;1.00
14924;DHT22;7554;43.600;1.480;2024-02-15T04:47:01;11.40;81.80
14924;DHT22;7554;43.600;1.480;2024-02-15T04:49:29;11.40;99.90
14924;DHT22;7554;43.600;1.480;2024-02-15T04:51:57;11.40;99.90
14924;DHT22;7554;43.600;1.480;2024-02-15T04:54:24;11.40;99.90
14924;DHT22;7554;43.600;1.480;2024-02-15T04:56:52;11.30;1.00
14924;DHT22;7554;43.600;1.480;2024-02-15T04:59:21;11.20;1.00
14924;DHT22;7554;43.600;1.480;2024-02-15T05:01:51;11.20;1.00
14924;DHT22;7554;43.600;1.480;2024-02-15T05:04:19;11.20;1.00
14924;DHT22;7554;43.600;1.480;2024-02-15T05:06:46;11.20;99.90
14924;DHT22;7554;43.600;1.480;2024-02-15T05:09:14;11.20;1.00
14924;DHT22;7554;43.600;1.480;2024-02-15T05:11:44;11.10;1.00
14924;DHT22;7554;43.600;1.480;2024-02-15T05:14:13;11.20;1.00
14924;DHT22;7554;43.600;1.480;2024-02-15T05:16:46;11.10;71.60
14924;DHT22;7554;43.600;1.480;2024-02-15T05:19:14;11.20;99.90
14924;DHT22;7554;43.600;1.480;2024-02-15T05:21:41;11.20;1.00
14924;DHT22;7554;43.600;1.480;2024-02-15T05:24:11;11.20;1.00
14924;DHT22;7554;43.600;1.480;2024-02-15T05:26:39;11.20;1.00
14924;DHT22;7554;43.600;1.480;2024-02-15T05:29:08;11.30;1.00
14924;DHT22;7554;43.600;1.480;2024-02-15T05:31:37;11.30;1.00
14924;DHT22;7554;43.600;1.480;2024-02-15T05:34:07;11.30;1.00
14924;DHT22;7554;43.600;1.480;2024-02-15T05:36:37;11.30;1.00
14924;DHT22;7554;43.600;1.480;2024-02-15T05:39:05;11.30;99.90
14924;DHT22;7554;43.600;1.480;2024-02-15T05:41:33;11.30;1.00
14924;DHT22;7554;43.600;1.480;2024-02-15T05:44:00;11.40;99.90
14924;DHT22;7554;43.600;1.480;2024-02-15T05:46:29;11.40;3.90
14924;DHT22;7554;43.600;1.480;2024-02-15T05:48:57;11.40;1.00
14924;DHT22;7554;43.600;1.480;2024-02-15T05:51:26;11.40;1.00
14924;DHT22;7554;43.600;1.480;2024-02-15T05:53:53;11.40;99.90
14924;DHT22;7554;43.600;1.480;2024-02-15T05:56:24;11.40;1.00
14924;DHT22;7554;43.600;1.480;2024-02-15T05:58:52;11.40;1.00
14924;DHT22;7554;43.600;1.480;2024-02-15T06:01:19;11.50;1.00
14924;DHT22;7554;43.600;1.480;2024-02-15T06:03:46;11.50;1.00
14924;DHT22;7554;43.600;1.480;2024-02-15T06:06:14;11.60;1.00
14924;DHT22;7554;43.600;1.480;2024-02-15T06:08:46;11.50;99.90
14924;DHT22;7554;43.600;1.480;2024-02-15T06:11:19;11.60;99.90
14924;DHT22;7554;43.600;1.480;2024-02-15T06:13:47;11.60;99.90
14924;DHT22;7554;43.600;1.480;2024-02-15T06:16:14;11.60;1.00
14924;DHT22;7554;43.600;1.480;2024-02-15T06:18:41;11.50;99.90
14924;DHT22;7554;43.600;1.480;2024-02-15T06:21:09;11.60;99.90
14924;DHT22;7554;43.600;1.480;2024-02-15T06:23:36;11.60;1.00
14924;DHT22;7554;43.600;1.480;2024-02-15T06:26:05;11.60;1.00
14924;DHT22;7554;43.600;1.480;2024-02-15T06:28:32;11.50;1.00
14924;DHT22;7554;43.600;1.480;2024-02-15T06:31:17;11.50;1.00
14924;DHT22;7554;43.600;1.480;2024-02-15T06:34:02;11.50;96.50
14924;DHT22;7554;43.600;1.480;2024-02-15T06:36:47;11.50;1.00
14924;DHT22;7554;43.600;1.480;2024-02-15T06:39:32;11.50;1.00
14924;DHT22;7554;43.600;1.480;2024-02-15T06:42:08;11.50;26.40
14924;DHT22;7554;43.600;1.480;2024-02-15T06:44:37;11.50;1.00
14924;DHT22;7554;43.600;1.480;2024-02-15T06:47:06;11.50;99.90
14924;DHT22;7554;43.600;1.480;2024-02-15T06:49:35;11.50;1.00
14924;DHT22;7554;43.600;1.480;2024-02-15T06:52:05;11.50;99.90
14924;DHT22;7554;43.600;1.480;2024-02-15T06:54:33;11.50;1.00
14924;DHT22;7554;43.600;1.480;2024-02-15T06:57:01;11.60;1.00
14924;DHT22;7554;43.600;1.480;2024-02-15T06:59:31;11.50;1.00
14924;DHT22;7554;43.600;1.480;2024-02-15T07:01:59;11.50;1.00
14924;DHT22;7554;43.600;1.480;2024-02-15T07:04:27;11.50;8.80
14924;DHT22;7554;43.600;1.480;2024-02-15T07:06:55;11.50;87.40
14924;DHT22;7554;43.600;1.480;2024-02-15T07:09:22;11.60;1.00
14924;DHT22;7554;43.600;1.480;2024-02-15T07:11:50;11.60;52.20
14924;DHT22;7554;43.600;1.480;2024-02-15T07:14:18;11.70;34.90
14924;DHT22;7554;43.600;1.480;2024-02-15T07:16:47;11.70;99.90
14924;DHT22;7554;43.600;1.480;2024-02-15T07:19:15;11.80;99.90
14924;DHT22;7554;43.600;1.480;2024-02-15T07:21:42;11.80;99.90
14924;DHT22;7554;43.600;1.480;2024-02-15T07:24:10;11.90;99.90
14924;DHT22;7554;43.600;1.480;2024-02-15T07:26:37;11.90;99.90
14924;DHT22;7554;43.600;1.480;2024-02-15T07:29:04;11.90;99.90
14924;DHT22;7554;43.600;1.480;2024-02-15T07:31:33;12.00;99.90
14924;DHT22;7554;43.600;1.480;2024-02-15T07:34:02;12.10;99.90
14924;DHT22;7554;43.600;1.480;2024-02-15T07:36:30;12.20;99.90
14924;DHT22;7554;43.600;1.480;2024-02-15T07:38:59;12.20;99.90
14924;DHT22;7554;43.600;1.480;2024-02-15T07:41:29;12.30;28.00
14924;DHT22;7554;43.600;1.480;2024-02-15T07:43:57;12.30;1.00
14924;DHT22;7554;43.600;1.480;2024-02-15T07:46:25;12.40;1.00
14924;DHT22;7554;43.600;1.480;2024-02-15T07:48:53;12.50;99.90
14924;DHT22;7554;43.600;1.480;2024-02-15T07:51:22;12.60;1.00
14924;DHT22;7554;43.600;1.480;2024-02-15T07:53:50;12.70;1.00
14924;DHT22;7554;43.600;1.480;2024-02-15T07:56:18;12.80;99.90
14924;DHT22;7554;43.600;1.480;2024-02-15T07:58:48;12.70;99.90
14924;DHT22;7554;43.600;1.480;2024-02-15T08:01:18;12.80;99.90
14924;DHT22;7554;43.600;1.480;2024-02-15T08:03:46;13.00;99.90
14924;DHT22;7554;43.600;1.480;2024-02-15T08:06:15;13.00;99.90
14924;DHT22;7554;43.600;1.480;2024-02-15T08:08:45;13.00;99.90
14924;DHT22;7554;43.600;1.480;2024-02-15T08:11:13;13.10;99.90
14924;DHT22;7554;43.600;1.480;2024-02-15T08:13:43;13.10;99.90
14924;DHT22;7554;43.600;1.480;2024-02-15T08:16:11;13.20;99.90
14924;DHT22;7554;43.600;1.480;2024-02-15T08:18:41;13.40;1.00
14924;DHT22;7554;43.600;1.480;2024-02-15T08:21:09;13.50;1.00
14924;DHT22;7554;43.600;1.480;2024-02-15T08:23:37;13.30;1.00
14924;DHT22;7554;43.600;1.480;2024-02-15T08:26:06;13.30;1.00
14924;DHT22;7554;43.600;1.480;2024-02-15T08:28:37;13.40;1.00
14924;DHT22;7554;43.600;1.480;2024-02-15T08:31:04;13.40;1.00
14924;DHT22;7554;43.600;1.480;2024-02-15T08:33:33;13.40;1.00
14924;DHT22;7554;43.600;1.480;2024-02-15T08:36:01;13.40;1.00
14924;DHT22;7554;43.600;1.480;2024-02-15T08:38:32;13.50;1.00
14924;DHT22;7554;43.600;1.480;2024-02-15T08:41:12;13.50;1.00
14924;DHT22;7554;43.600;1.480;2024-02-15T08:43:39;13.40;1.00
14924;DHT22;7554;43.600;1.480;2024-02-15T08:46:07;13.40;1.00
14924;DHT22;7554;43.600;1.480;2024-02-15T08:48:35;13.30;1.00
14924;DHT22;7554;43.600;1.480;2024-02-15T08:51:03;13.30;93.50
14924;DHT22;7554;43.600;1.480;2024-02-15T08:53:31;13.30;95.20
14924;DHT22;7554;43.600;1.480;2024-02-15T08:55:59;13.30;93.10
14924;DHT22;7554;43.600;1.480;2024-02-15T08:58:28;13.40;1.00
14924;DHT22;7554;43.600;1.480;2024-02-15T09:00:56;13.50;1.00
14924;DHT22;7554;43.600;1.480;2024-02-15T09:03:24;13.70;1.00
14924;DHT22;7554;43.600;1.480;2024-02-15T09:05:53;13.90;1.00
14924;DHT22;7554;43.600;1.480;2024-02-15T09:08:20;14.00;99.90
14924;DHT22;7554;43.600;1.480;2024-02-15T09:10:49;14.20;99.90
14924;DHT22;7554;43.600;1.480;2024-02-15T09:13:18;14.40;99.90
14924;DHT22;7554;43.600;1.480;2024-02-15T09:15:47;14.50;99.90
14924;DHT22;7554;43.600;1.480;2024-02-15T09:18:14;14.60;99.90
14924;DHT22;7554;43.600;1.480;2024-02-15T09:20:43;14.70;99.70
14924;DHT22;7554;43.600;1.480;2024-02-15T09:23:15;15.00;50.50
14924;DHT22;7554;43.600;1.480;2024-02-15T09:25:42;14.90;37.20
14924;DHT22;7554;43.600;1.480;2024-02-15T09:28:10;14.80;86.80
14924;DHT22;7554;43.600;1.480;2024-02-15T09:30:37;15.00;61.50
14924;DHT22;7554;43.600;1.480;2024-02-15T09:33:06;15.20;20.20
14924;DHT22;7554;43.600;1.480;2024-02-15T09:35:34;15.20;43.70
14924;DHT22;7554;43.600;1.480;2024-02-15T09:38:02;15.10;20.60
14924;DHT22;7554;43.600;1.480;2024-02-15T09:40:29;15.10;25.10
14924;DHT22;7554;43.600;1.480;2024-02-15T09:42:57;15.30;19.40
14924;DHT22;7554;43.600;1.480;2024-02-15T09:45:25;15.20;22.40
14924;DHT22;7554;43.600;1.480;2024-02-15T09:47:53;15.20;24.50
14924;DHT22;7554;43.600;1.480;2024-02-15T09:50:23;15.40;2.20
14924;DHT22;7554;43.600;1.480;2024-02-15T09:52:52;15.10;24.80
14924;DHT22;7554;43.600;1.480;2024-02-15T09:55:21;15.10;46.30
14924;DHT22;7554;43.600;1.480;2024-02-15T09:57:50;15.30;47.20
14924;DHT22;7554;43.600;1.480;2024-02-15T10:00:18;15.00;72.40
14924;DHT22;7554;43.600;1.480;2024-02-15T10:02:49;15.00;83.10
14924;DHT22;7554;43.600;1.480;2024-02-15T10:05:18;15.10;36.10
14924;DHT22;7554;43.600;1.480;2024-02-15T10:07:48;15.10;33.80
14924;DHT22;7554;43.600;1.480;2024-02-15T10:10:16;15.20;23.60
14924;DHT22;7554;43.600;1.480;2024-02-15T10:12:45;15.40;1.00
14924;DHT22;7554;43.600;1.480;2024-02-15T10:15:28;15.40;1.00
14924;DHT22;7554;43.600;1.480;2024-02-15T10:17:56;15.40;1.00
14924;DHT22;7554;43.600;1.480;2024-02-15T10:20:24;15.50;1.00
14924;DHT22;7554;43.600;1.480;2024-02-15T10:23:09;15.60;1.00
14924;DHT22;7554;43.600;1.480;2024-02-15T10:25:37;15.50;1.00
14924;DHT22;7554;43.600;1.480;2024-02-15T10:28:05;15.40;1.00
14924;DHT22;7554;43.600;1.480;2024-02-15T10:30:34;15.30;3.30
14924;DHT22;7554;43.600;1.480;2024-02-15T10:33:02;15.80;1.00
14924;DHT22;7554;43.600;1.480;2024-02-15T10:35:29;15.70;1.00
14924;DHT22;7554;43.600;1.480;2024-02-15T10:38:08;15.60;1.00
14924;DHT22;7554;43.600;1.480;2024-02-15T10:40:36;15.60;1.00
14924;DHT22;7554;43.600;1.480;2024-02-15T10:43:04;15.70;1.00
14924;DHT22;7554;43.600;1.480;2024-02-15T10:45:32;15.80;1.00
14924;DHT22;7554;43.600;1.480;2024-02-15T10:48:00;16.20;1.00
14924;DHT22;7554;43.600;1.480;2024-02-15T10:50:27;16.00;1.00
14924;DHT22;7554;43.600;1.480;2024-02-15T10:52:56;16.00;1.00
14924;DHT22;7554;43.600;1.480;2024-02-15T10:55:36;15.80;1.00
14924;DHT22;7554;43.600;1.480;2024-02-15T10:58:06;15.60;2.80
14924;DHT22;7554;43.600;1.480;2024-02-15T11:00:34;15.80;1.00
14924;DHT22;7554;43.600;1.480;2024-02-15T11:03:04;15.40;29.90
14924;DHT22;7554;43.600;1.480;2024-02-15T11:05:33;15.60;21.80
14924;DHT22;7554;43.600;1.480;2024-02-15T11:08:06;15.90;1.00
14924;DHT22;7554;43.600;1.480;2024-02-15T11:10:36;15.90;1.00
14924;DHT22;7554;43.600;1.480;2024-02-15T11:13:04;15.90;1.00
14924;DHT22;7554;43.600;1.480;2024-02-15T11:15:42;15.80;1.00
14924;DHT22;7554;43.600;1.480;2024-02-15T11:18:43;15.80;1.00
14924;DHT22;7554;43.600;1.480;2024-02-15T11:21:12;15.80;1.00
14924;DHT22;7554;43.600;1.480;2024-02-15T11:23:39;15.90;1.00
14924;DHT22;7554;43.600;1.480;2024-02-15T11:26:44;15.90;1.00
14924;DHT22;7554;43.600;1.480;2024-02-15T11:29:49;15.80;1.00
14924;DHT22;7554;43.600;1.480;2024-02-15T11:32:37;15.90;1.00
14924;DHT22;7554;43.600;1.480;2024-02-15T11:35:06;15.80;1.00
14924;DHT22;7554;43.600;1.480;2024-02-15T11:37:56;16.00;1.00
14924;DHT22;7554;43.600;1.480;2024-02-15T11:41:02;16.00;1.00
14924;DHT22;7554;43.600;1.480;2024-02-15T11:43:52;16.00;1.00
14924;DHT22;7554;43.600;1.480;2024-02-15T11:46:25;16.10;1.00
14924;DHT22;7554;43.600;1.480;2024-02-15T11:48:56;16.00;1.00
14924;DHT22;7554;43.600;1.480;2024-02-15T11:51:29;15.80;1.00
14924;DHT22;7554;43.600;1.480;2024-02-15T11:54:01;15.80;1.00
14924;DHT22;7554;43.600;1.480;2024-02-15T11:56:32;16.00;1.00
14924;DHT22;7554;43.600;1.480;2024-02-15T11:59:04;16.20;1.00
14924;DHT22;7554;43.600;1.480;2024-02-15T12:01:32;15.90;1.00
14924;DHT22;7554;43.600;1.480;2024-02-15T12:04:18;15.80;1.00
14924;DHT22;7554;43.600;1.480;2024-02-15T12:07:09;15.70;1.00
14924;DHT22;7554;43.600;1.480;2024-02-15T12:09:58;15.80;1.00
14924;DHT22;7554;43.600;1.480;2024-02-15T12:12:51;15.60;5.30
14924;DHT22;7554;43.600;1.480;2024-02-15T12:15:37;15.70;19.60
14924;DHT22;7554;43.600;1.480;2024-02-15T12:18:21;15.90;1.00
14924;DHT22;7554;43.600;1.480;2024-02-15T12:21:17;15.90;1.00
14924;DHT22;7554;43.600;1.480;2024-02-15T12:23:48;15.90;1.00
14924;DHT22;7554;43.600;1.480;2024-02-15T12:26:19;15.90;1.00
14924;DHT22;7554;43.600;1.480;2024-02-15T12:28:51;15.80;1.00
14924;DHT22;7554;43.600;1.480;2024-02-15T12:31:22;15.80;1.00
14924;DHT22;7554;43.600;1.480;2024-02-15T12:34:00;16.00;1.00
14924;DHT22;7554;43.600;1.480;2024-02-15T12:36:28;15.80;1.00
14924;DHT22;7554;43.600;1.480;2024-02-15T12:39:02;15.80;1.00
14924;DHT22;7554;43.600;1.480;2024-02-15T12:41:36;15.80;1.00
14924;DHT22;7554;43.600;1.480;2024-02-15T12:44:06;15.60;1.00
14924;DHT22;7554;43.600;1.480;2024-02-15T12:46:37;15.70;1.00
14924;DHT22;7554;43.600;1.480;2024-02-15T12:49:27;15.80;1.00
14924;DHT22;7554;43.600;1.480;2024-02-15T12:52:33;15.70;1.00
14924;DHT22;7554;43.600;1.480;2024-02-15T12:55:08;15.70;1.00
14924;DHT22;7554;43.600;1.480;2024-02-15T12:57:36;15.80;1.00
14924;DHT22;7554;43.600;1.480;2024-02-15T13:00:07;15.70;1.00
14924;DHT22;7554;43.600;1.480;2024-02-15T13:02:41;15.60;1.00
14924;DHT22;7554;43.600;1.480;2024-02-15T13:05:09;15.60;7.10
14924;DHT22;7554;43.600;1.480;2024-02-15T13:07:37;15.60;14.90
14924;DHT22;7554;43.600;1.480;2024-02-15T13:10:06;15.80;11.50
14924;DHT22;7554;43.600;1.480;2024-02-15T13:12:34;15.60;1.00
14924;DHT22;7554;43.600;1.480;2024-02-15T13:15:03;15.70;1.00
14924;DHT22;7554;43.600;1.480;2024-02-15T13:17:31;15.80;1.00
14924;DHT22;7554;43.600;1.480;2024-02-15T13:20:01;15.90;1.00
14924;DHT22;7554;43.600;1.480;2024-02-15T13:22:31;15.70;1.00
14924;DHT22;7554;43.600;1.480;2024-02-15T13:25:00;15.80;1.00
14924;DHT22;7554;43.600;1.480;2024-02-15T13:27:29;15.60;7.60
14924;DHT22;7554;43.600;1.480;2024-02-15T13:29:57;15.80;1.00
14924;DHT22;7554;43.600;1.480;2024-02-15T13:32:24;15.90;1.00
14924;DHT22;7554;43.600;1.480;2024-02-15T13:34:51;15.70;1.00
14924;DHT22;7554;43.600;1.480;2024-02-15T13:37:23;15.80;1.00
14924;DHT22;7554;43.600;1.480;2024-02-15T13:39:50;15.80;1.00
14924;DHT22;7554;43.600;1.480;2024-02-15T13:42:18;16.00;1.00
14924;DHT22;7554;43.600;1.480;2024-02-15T13:44:45;16.00;1.00
14924;DHT22;7554;43.600;1.480;2024-02-15T13:47:13;15.80;1.00
14924;DHT22;7554;43.600;1.480;2024-02-15T13:49:42;15.70;8.00
14924;DHT22;7554;43.600;1.480;2024-02-15T13:52:10;15.60;31.20
14924;DHT22;7554;43.600;1.480;2024-02-15T13:54:38;15.60;44.30
14924;DHT22;7554;43.600;1.480;2024-02-15T13:57:06;15.50;49.80
14924;DHT22;7554;43.600;1.480;2024-02-15T13:59:33;15.40;84.00
14924;DHT22;7554;43.600;1.480;2024-02-15T14:02:01;15.40;65.70
14924;DHT22;7554;43.600;1.480;2024-02-15T14:04:29;15.60;55.10
14924;DHT22;7554;43.600;1.480;2024-02-15T14:06:58;15.60;46.30
14924;DHT22;7554;43.600;1.480;2024-02-15T14:09:26;15.50;72.60
14924;DHT22;7554;43.600;1.480;2024-02-15T14:11:55;15.50;82.50
14924;DHT22;7554;43.600;1.480;2024-02-15T14:14:23;15.30;99.90
14924;DHT22;7554;43.600;1.480;2024-02-15T14:16:51;15.30;99.90
14924;DHT22;7554;43.600;1.480;2024-02-15T14:19:18;15.20;99.90
14924;DHT22;7554;43.600;1.480;2024-02-15T14:21:47;15.30;99.90
14924;DHT22;7554;43.600;1.480;2024-02-15T14:24:14;15.30;99.90
14924;DHT22;7554;43.600;1.480;2024-02-15T14:26:44;15.10;99.90
14924;DHT22;7554;43.600;1.480;2024-02-15T14:29:13;15.20;99.90
14924;DHT22;7554;43.600;1.480;2024-02-15T14:31:46;15.10;99.90
14924;DHT22;7554;43.600;1.480;2024-02-15T14:34:31;15.10;99.90
14924;DHT22;7554;43.600;1.480;2024-02-15T14:36:58;15.20;99.90
14924;DHT22;7554;43.600;1.480;2024-02-15T14:39:27;15.20;99.90
14924;DHT22;7554;43.600;1.480;2024-02-15T14:41:56;15.30;99.90
14924;DHT22;7554;43.600;1.480;2024-02-15T14:44:25;15.30;95.60
14924;DHT22;7554;43.600;1.480;2024-02-15T14:46:52;15.30;99.90
14924;DHT22;7554;43.600;1.480;2024-02-15T14:49:19;15.40;97.80
14924;DHT22;7554;43.600;1.480;2024-02-15T14:51:48;15.40;68.40
14924;DHT22;7554;43.600;1.480;2024-02-15T14:54:17;15.40;89.10
14924;DHT22;7554;43.600;1.480;2024-02-15T14:56:45;15.50;73.30
14924;DHT22;7554;43.600;1.480;2024-02-15T14:59:12;15.50;73.70
14924;DHT22;7554;43.600;1.480;2024-02-15T15:01:42;15.50;80.70
14924;DHT22;7554;43.600;1.480;2024-02-15T15:04:10;15.30;82.20
14924;DHT22;7554;43.600;1.480;2024-02-15T15:06:38;15.20;87.70
14924;DHT22;7554;43.600;1.480;2024-02-15T15:09:23;15.20;91.00
14924;DHT22;7554;43.600;1.480;2024-02-15T15:12:07;15.20;82.50
14924;DHT22;7554;43.600;1.480;2024-02-15T15:14:52;15.20;69.40
14924;DHT22;7554;43.600;1.480;2024-02-15T15:17:22;15.20;89.20
14924;DHT22;7554;43.600;1.480;2024-02-15T15:19:51;15.10;99.90
14924;DHT22;7554;43.600;1.480;2024-02-15T15:22:19;14.90;99.90
14924;DHT22;7554;43.600;1.480;2024-02-15T15:24:46;15.00;99.90
14924;DHT22;7554;43.600;1.480;2024-02-15T15:27:14;15.10;99.90
14924;DHT22;7554;43.600;1.480;2024-02-15T15:29:41;15.10;99.90
14924;DHT22;7554;43.600;1.480;2024-02-15T15:32:08;15.20;99.90
14924;DHT22;7554;43.600;1.480;2024-02-15T15:34:37;15.20;92.50
14924;DHT22;7554;43.600;1.480;2024-02-15T15:37:05;15.10;75.70
14924;DHT22;7554;43.600;1.480;2024-02-15T15:39:33;15.00;81.90
14924;DHT22;7554;43.600;1.480;2024-02-15T15:42:02;15.00;98.60
14924;DHT22;7554;43.600;1.480;2024-02-15T15:44:33;14.90;99.90
14924;DHT22;7554;43.600;1.480;2024-02-15T15:47:00;14.90;99.90
14924;DHT22;7554;43.600;1.480;2024-02-15T15:49:27;14.90;99.90
14924;DHT22;7554;43.600;1.480;2024-02-15T15:51:58;14.90;97.40
14924;DHT22;7554;43.600;1.480;2024-02-15T15:54:25;14.80;99.90
14924;DHT22;7554;43.600;1.480;2024-02-15T15:56:53;14.70;99.90
14924;DHT22;7554;43.600;1.480;2024-02-15T15:59:22;14.70;99.90
14924;DHT22;7554;43.600;1.480;2024-02-15T16:01:51;14.80;99.90
14924;DHT22;7554;43.600;1.480;2024-02-15T16:04:18;14.70;97.10
14924;DHT22;7554;43.600;1.480;2024-02-15T16:06:48;14.70;99.90
14924;DHT22;7554;43.600;1.480;2024-02-15T16:09:16;14.70;99.90
14924;DHT22;7554;43.600;1.480;2024-02-15T16:11:44;14.80;99.90
14924;DHT22;7554;43.600;1.480;2024-02-15T16:14:11;14.70;99.90